createdAt,value
2018-05-17T00:01:22.746Z,23.80
2018-05-17T00:03:52.273Z,24.10
2018-05-17T00:06:21.791Z,26.37
2018-05-17T00:08:51.710Z,23.97
2018-05-17T00:11:21.652Z,22.40
2018-05-17T00:13:51.199Z,22.67
2018-05-17T00:16:20.749Z,23.17
2018-05-17T00:18:50.666Z,24.37
2018-05-17T00:21:21.276Z,23.13
2018-05-17T00:23:50.811Z,23.73
2018-05-17T00:26:20.392Z,22.67
2018-05-17T00:28:50.349Z,23.60
2018-05-17T00:31:19.956Z,23.60
2018-05-17T00:33:49.505Z,21.43
2018-05-17T00:36:19.039Z,21.87
2018-05-17T00:38:48.950Z,21.77
2018-05-17T00:41:18.903Z,22.17
2018-05-17T00:43:48.487Z,21.17
2018-05-17T00:46:18.420Z,23.27
2018-05-17T00:48:47.941Z,22.60
2018-05-17T00:51:17.477Z,23.23
2018-05-17T00:53:47.054Z,23.10
2018-05-17T00:56:16.596Z,23.70
2018-05-17T00:58:46.139Z,22.60
2018-05-17T01:01:15.674Z,22.93
2018-05-17T01:03:45.217Z,21.77
2018-05-17T01:06:15.051Z,23.47
2018-05-17T01:08:44.998Z,20.93
2018-05-17T01:11:14.576Z,22.93
2018-05-17T01:13:44.498Z,21.83
2018-05-17T01:16:14.445Z,22.07
2018-05-17T01:18:44.006Z,21.83
2018-05-17T01:21:13.757Z,21.47
2018-05-17T01:23:43.325Z,22.23
2018-05-17T01:26:13.239Z,23.60
2018-05-17T01:28:43.198Z,22.90
2018-05-17T01:31:12.766Z,22.43
2018-05-17T01:33:42.705Z,24.20
2018-05-17T01:36:12.499Z,24.13
2018-05-17T01:38:42.083Z,23.27
2018-05-17T01:41:11.610Z,23.67
2018-05-17T01:43:41.535Z,24.97
2018-05-17T01:46:11.501Z,26.43
2018-05-17T01:48:41.035Z,27.37
2018-05-17T01:51:10.567Z,27.27
2018-05-17T01:53:40.127Z,29.63
2018-05-17T01:56:09.875Z,30.83
2018-05-17T01:58:39.819Z,30.53
2018-05-17T02:01:09.367Z,30.27
2018-05-17T02:03:38.921Z,29.93
2018-05-17T02:06:08.441Z,31.33
2018-05-17T02:08:38.065Z,29.67
2018-05-17T02:11:07.287Z,31.57
2018-05-17T02:13:36.832Z,30.37
2018-05-17T02:16:06.369Z,29.27
2018-05-17T02:18:35.903Z,30.47
2018-05-17T02:21:05.431Z,30.50
2018-05-17T02:23:35.372Z,31.77
2018-05-17T02:26:04.897Z,30.20
2018-05-17T02:28:34.452Z,29.50
2018-05-17T02:31:04.001Z,25.40
2018-05-17T02:33:33.535Z,23.87
2018-05-17T02:36:03.119Z,24.23
2018-05-17T02:38:33.005Z,22.57
2018-05-17T02:41:02.928Z,23.23
2018-05-17T02:43:32.909Z,21.80
2018-05-17T02:46:02.413Z,21.47
2018-05-17T02:48:31.946Z,21.90
2018-05-17T02:51:01.919Z,22.73
2018-05-17T02:53:31.456Z,22.30
2018-05-17T02:56:00.992Z,21.63
2018-05-17T02:58:30.531Z,22.27
2018-05-17T03:01:00.073Z,21.70
2018-05-17T03:03:29.605Z,21.07
2018-05-17T03:05:59.557Z,20.00
2018-05-17T03:08:29.167Z,18.47
2018-05-17T03:10:58.376Z,17.73
2018-05-17T03:13:27.898Z,18.47
2018-05-17T03:15:57.431Z,18.60
2018-05-17T03:18:27.365Z,18.73
2018-05-17T03:20:56.925Z,18.00
2018-05-17T03:23:26.455Z,18.37
2018-05-17T03:25:56.363Z,18.50
2018-05-17T03:28:26.343Z,17.03
2018-05-17T03:30:55.993Z,18.07
2018-05-17T03:33:26.031Z,18.17
2018-05-17T03:35:55.936Z,17.63
2018-05-17T03:38:25.865Z,17.17
2018-05-17T03:40:55.404Z,17.87
2018-05-17T03:43:25.003Z,18.17
2018-05-17T03:45:54.535Z,20.23
2018-05-17T03:48:24.075Z,19.30
2018-05-17T03:50:53.661Z,19.60
2018-05-17T03:53:23.191Z,21.00
2018-05-17T03:55:53.127Z,18.17
2018-05-17T03:58:22.825Z,16.60
2018-05-17T04:01:09.047Z,17.10
2018-05-17T04:03:55.372Z,17.60
2018-05-17T04:06:44.127Z,17.47
2018-05-17T04:09:13.665Z,16.47
2018-05-17T04:11:43.603Z,17.30
2018-05-17T04:14:13.217Z,17.27
2018-05-17T04:16:42.772Z,17.50
2018-05-17T04:19:12.304Z,17.43
2018-05-17T04:21:42.238Z,17.97
2018-05-17T04:24:12.172Z,18.30
2018-05-17T04:26:41.707Z,18.73
2018-05-17T04:29:11.498Z,19.57
2018-05-17T04:31:41.601Z,19.80
2018-05-17T04:34:11.140Z,19.57
2018-05-17T04:36:40.660Z,20.37
2018-05-17T04:39:10.196Z,18.60
2018-05-17T04:41:40.120Z,20.13
2018-05-17T04:44:10.040Z,19.90
2018-05-17T04:46:39.960Z,20.53
2018-05-17T04:49:09.504Z,19.63
2018-05-17T04:51:39.040Z,20.93
2018-05-17T04:54:08.648Z,21.13
2018-05-17T04:56:38.166Z,22.13
2018-05-17T04:59:08.173Z,22.03
2018-05-17T05:01:37.732Z,22.60
2018-05-17T05:04:07.280Z,23.30
2018-05-17T05:06:36.902Z,24.23
2018-05-17T05:09:07.466Z,24.47
2018-05-17T05:11:37.006Z,24.47
2018-05-17T05:14:06.523Z,24.13
2018-05-17T05:16:36.076Z,23.07
2018-05-17T05:19:05.666Z,25.33
2018-05-17T05:21:35.593Z,26.83
2018-05-17T05:24:05.526Z,28.93
2018-05-17T05:26:35.049Z,27.93
2018-05-17T05:29:04.578Z,27.03
2018-05-17T05:31:34.187Z,27.03
2018-05-17T05:34:04.257Z,27.90
2018-05-17T05:36:33.808Z,28.70
2018-05-17T05:39:03.106Z,33.60
2018-05-17T05:41:32.635Z,33.80
2018-05-17T05:44:02.192Z,33.73
2018-05-17T05:46:31.744Z,31.80
2018-05-17T05:49:01.278Z,31.67
2018-05-17T05:51:30.836Z,27.00
2018-05-17T05:54:00.353Z,25.23
2018-05-17T05:56:29.892Z,22.20
2018-05-17T05:59:00.572Z,22.33
2018-05-17T06:01:30.108Z,22.97
2018-05-17T06:03:59.660Z,24.97
2018-05-17T06:06:29.210Z,25.00
2018-05-17T06:08:58.774Z,26.30
2018-05-17T06:11:28.346Z,26.83
2018-05-17T06:13:57.902Z,25.73
2018-05-17T06:16:27.430Z,25.40
2018-05-17T06:18:57.359Z,24.90
2018-05-17T06:21:26.972Z,25.23
2018-05-17T06:23:56.532Z,26.20
2018-05-17T06:26:26.067Z,26.67
2018-05-17T06:28:55.598Z,26.53
2018-05-17T06:31:25.728Z,27.30
2018-05-17T06:33:55.746Z,26.83
2018-05-17T06:36:25.736Z,30.80
2018-05-17T06:38:55.279Z,25.87
2018-05-17T06:41:25.213Z,25.97
2018-05-17T06:43:54.814Z,26.17
2018-05-17T06:46:25.284Z,26.57
2018-05-17T06:48:54.807Z,28.47
2018-05-17T06:51:24.363Z,28.33
2018-05-17T06:53:53.896Z,28.03
2018-05-17T06:56:23.698Z,27.90
2018-05-17T06:58:53.314Z,27.47
2018-05-17T07:01:22.848Z,26.17
2018-05-17T07:03:52.496Z,25.77
2018-05-17T07:06:22.016Z,25.23
2018-05-17T07:08:51.550Z,23.17
2018-05-17T07:11:21.099Z,23.17
2018-05-17T07:13:51.017Z,22.93
2018-05-17T07:16:20.956Z,23.87
2018-05-17T07:18:50.520Z,25.17
2018-05-17T07:21:20.139Z,24.57
2018-05-17T07:23:50.089Z,24.90
2018-05-17T07:26:19.636Z,23.47
2018-05-17T07:28:49.166Z,22.87
2018-05-17T07:31:19.123Z,22.00
2018-05-17T07:33:49.234Z,22.13
2018-05-17T07:36:18.764Z,20.80
2018-05-17T07:38:48.313Z,20.80
2018-05-17T07:41:18.257Z,21.90
2018-05-17T07:43:47.778Z,21.93
2018-05-17T07:46:17.346Z,21.33
2018-05-17T07:48:47.271Z,21.03
2018-05-17T07:51:17.236Z,19.63
2018-05-17T07:53:46.844Z,21.40
2018-05-17T07:56:16.710Z,20.37
2018-05-17T07:58:46.630Z,20.07
2018-05-17T08:01:16.538Z,21.37
2018-05-17T08:03:46.485Z,20.57
2018-05-17T08:06:16.049Z,20.73
2018-05-17T08:08:45.582Z,20.97
2018-05-17T08:11:15.106Z,20.30
2018-05-17T08:13:44.631Z,21.57
2018-05-17T08:16:14.359Z,22.00
2018-05-17T08:18:43.923Z,21.83
2018-05-17T08:21:13.480Z,22.17
2018-05-17T08:23:43.073Z,22.43
2018-05-17T08:26:12.585Z,23.47
2018-05-17T08:28:42.291Z,20.33
2018-05-17T08:31:11.800Z,20.87
2018-05-17T08:33:40.665Z,21.53
2018-05-17T08:36:10.272Z,22.63
2018-05-17T08:38:40.007Z,21.93
2018-05-17T08:41:09.535Z,22.00
2018-05-17T08:43:39.472Z,21.80
2018-05-17T08:46:09.009Z,22.17
2018-05-17T08:48:38.562Z,22.07
2018-05-17T08:51:08.084Z,21.77
2018-05-17T08:53:38.023Z,21.40
2018-05-17T08:56:07.552Z,20.83
2018-05-17T08:58:37.085Z,20.43
2018-05-17T09:01:06.635Z,20.80
2018-05-17T09:03:36.151Z,21.37
2018-05-17T09:06:05.956Z,21.07
2018-05-17T09:08:35.411Z,20.40
2018-05-17T09:11:04.969Z,20.67
2018-05-17T09:13:34.721Z,20.37
2018-05-17T09:16:04.429Z,20.87
2018-05-17T09:18:33.981Z,20.80
2018-05-17T09:21:03.925Z,20.43
2018-05-17T09:23:33.493Z,20.17
2018-05-17T09:26:03.435Z,19.70
2018-05-17T09:28:32.947Z,18.53
2018-05-17T09:31:02.469Z,17.27
2018-05-17T09:33:32.067Z,16.80
2018-05-17T09:36:01.613Z,17.73
2018-05-17T09:38:31.141Z,19.07
2018-05-17T09:41:01.060Z,17.17
2018-05-17T09:43:30.990Z,17.13
2018-05-17T09:46:00.515Z,15.17
2018-05-17T09:48:30.074Z,15.50
2018-05-17T09:50:59.731Z,16.00
2018-05-17T09:53:29.259Z,15.13
2018-05-17T09:55:58.782Z,15.57
2018-05-17T09:58:28.364Z,15.63
2018-05-17T10:00:57.916Z,15.17
2018-05-17T10:03:27.843Z,14.77
2018-05-17T10:05:57.783Z,15.30
2018-05-17T10:08:27.333Z,14.33
2018-05-17T10:10:56.860Z,13.83
2018-05-17T10:13:26.769Z,14.37
2018-05-17T10:15:56.297Z,15.10
2018-05-17T10:18:26.223Z,14.07
2018-05-17T10:20:55.421Z,14.23
2018-05-17T10:23:24.946Z,15.03
2018-05-17T10:25:54.467Z,14.50
2018-05-17T10:28:24.009Z,14.17
2018-05-17T10:30:53.561Z,14.40
2018-05-17T10:33:23.119Z,13.40
2018-05-17T10:35:52.677Z,11.80
2018-05-17T10:38:22.204Z,12.50
2018-05-17T10:40:51.746Z,13.00
2018-05-17T10:43:21.671Z,13.10
2018-05-17T10:45:51.590Z,14.03
2018-05-17T10:48:21.595Z,13.57
2018-05-17T10:50:51.530Z,14.23
2018-05-17T10:53:21.461Z,13.77
2018-05-17T10:55:51.069Z,14.13
2018-05-17T10:58:20.591Z,13.73
2018-05-17T11:00:49.879Z,12.40
2018-05-17T11:03:19.417Z,14.30
2018-05-17T11:05:48.947Z,11.97
2018-05-17T11:08:18.488Z,12.20
2018-05-17T11:10:48.019Z,11.03
2018-05-17T11:13:17.549Z,9.30
2018-05-17T11:15:46.913Z,10.13
2018-05-17T11:18:16.484Z,10.80
2018-05-17T11:20:46.459Z,10.93
2018-05-17T11:23:16.019Z,10.37
2018-05-17T11:25:45.947Z,10.97
2018-05-17T11:28:15.467Z,10.73
2018-05-17T11:30:45.011Z,10.83
2018-05-17T11:33:14.534Z,10.43
2018-05-17T11:35:44.049Z,10.07
2018-05-17T11:38:13.637Z,9.77
2018-05-17T11:40:43.231Z,9.27
2018-05-17T11:43:12.753Z,9.87
2018-05-17T11:45:42.278Z,11.00
2018-05-17T11:48:12.208Z,11.67
2018-05-17T11:50:41.730Z,10.33
2018-05-17T11:53:11.255Z,10.50
2018-05-17T11:55:40.804Z,9.17
2018-05-17T11:58:10.717Z,8.50
2018-05-17T12:00:40.239Z,7.70
2018-05-17T12:03:09.761Z,7.10
2018-05-17T12:05:39.943Z,6.13
2018-05-17T12:08:09.473Z,6.83
2018-05-17T12:10:39.171Z,7.40
2018-05-17T12:13:09.087Z,7.47
2018-05-17T12:15:39.025Z,6.50
2018-05-17T12:18:08.555Z,7.27
2018-05-17T12:20:38.095Z,6.07
2018-05-17T12:23:07.642Z,4.33
2018-05-17T12:25:37.326Z,4.47
2018-05-17T12:28:06.859Z,5.60
2018-05-17T12:30:36.581Z,6.07
2018-05-17T12:33:06.106Z,6.40
2018-05-17T12:35:35.647Z,6.23
2018-05-17T12:38:05.657Z,5.50
2018-05-17T12:40:35.177Z,5.00
2018-05-17T12:43:04.713Z,5.33
2018-05-17T12:45:34.233Z,5.17
2018-05-17T12:48:03.779Z,5.47
2018-05-17T12:50:33.342Z,5.40
2018-05-17T12:53:02.860Z,4.90
2018-05-17T12:55:32.380Z,4.67
2018-05-17T12:58:01.964Z,5.13
2018-05-17T13:00:32.066Z,5.23
2018-05-17T13:03:01.984Z,5.30
2018-05-17T13:05:31.503Z,5.20
2018-05-17T13:08:01.005Z,4.60
2018-05-17T13:10:30.597Z,4.93
2018-05-17T13:13:00.182Z,5.20
2018-05-17T13:15:29.863Z,5.47
2018-05-17T13:17:59.779Z,5.10
2018-05-17T13:20:29.311Z,4.70
2018-05-17T13:22:58.821Z,5.10
2018-05-17T13:25:28.353Z,5.73
2018-05-17T13:27:58.073Z,5.40
2018-05-17T13:30:27.643Z,5.53
2018-05-17T13:32:57.160Z,5.07
2018-05-17T13:35:27.120Z,4.40
2018-05-17T13:37:56.875Z,4.33
2018-05-17T13:40:26.487Z,3.80
2018-05-17T13:42:56.055Z,3.93
2018-05-17T13:45:25.643Z,3.90
2018-05-17T13:47:55.186Z,3.20
2018-05-17T13:50:24.947Z,3.13
2018-05-17T13:52:54.453Z,2.97
2018-05-17T13:55:23.991Z,3.23
2018-05-17T13:57:53.511Z,3.20
2018-05-17T14:00:23.037Z,3.47
2018-05-17T14:02:52.569Z,3.43
2018-05-17T14:05:22.666Z,3.37
2018-05-17T14:07:52.184Z,3.90
2018-05-17T14:10:22.101Z,3.77
2018-05-17T14:12:52.039Z,3.87
2018-05-17T14:15:21.583Z,3.87
2018-05-17T14:17:51.310Z,4.03
2018-05-17T14:20:20.852Z,4.67
2018-05-17T14:22:50.800Z,5.27
2018-05-17T14:25:20.394Z,5.80
2018-05-17T14:27:49.990Z,6.53
2018-05-17T14:30:19.494Z,7.03
2018-05-17T14:32:49.025Z,8.50
2018-05-17T14:35:18.566Z,10.20
2018-05-17T14:37:48.107Z,10.60
2018-05-17T14:40:18.902Z,12.20
2018-05-17T14:42:48.425Z,12.93
2018-05-17T14:45:17.968Z,13.47
2018-05-17T14:47:47.664Z,13.27
2018-05-17T14:50:17.567Z,13.53
2018-05-17T14:52:47.535Z,14.17
2018-05-17T14:55:17.085Z,14.87
2018-05-17T14:57:46.796Z,14.27
2018-05-17T15:00:16.760Z,15.33
2018-05-17T15:02:46.471Z,14.60
2018-05-17T15:05:16.014Z,13.10
2018-05-17T15:07:45.546Z,11.97
2018-05-17T15:10:15.474Z,12.70
2018-05-17T15:12:44.985Z,12.60
2018-05-17T15:15:14.513Z,12.77
2018-05-17T15:17:44.122Z,13.00
2018-05-17T15:20:13.644Z,14.47
2018-05-17T15:22:43.163Z,13.97
2018-05-17T15:25:12.698Z,12.77
2018-05-17T15:27:42.641Z,13.63
2018-05-17T15:30:12.785Z,13.63
2018-05-17T15:32:42.352Z,12.13
2018-05-17T15:35:12.288Z,11.73
2018-05-17T15:37:41.942Z,12.40
2018-05-17T15:40:11.206Z,11.77
2018-05-17T15:42:40.846Z,11.43
2018-05-17T15:45:10.400Z,10.73
2018-05-17T15:47:40.600Z,10.70
2018-05-17T15:50:10.528Z,10.13
2018-05-17T15:52:40.448Z,10.60
2018-05-17T15:55:09.999Z,15.43
2018-05-17T15:57:39.532Z,9.17
2018-05-17T16:00:09.264Z,8.40
2018-05-17T16:02:39.184Z,7.87
2018-05-17T16:05:09.107Z,7.53
2018-05-17T16:07:38.624Z,6.67
2018-05-17T16:10:08.159Z,7.50
2018-05-17T16:12:37.472Z,7.50
2018-05-17T16:15:07.154Z,7.43
2018-05-17T16:17:36.744Z,7.23
2018-05-17T16:20:06.278Z,7.73
2018-05-17T16:22:35.805Z,7.63
2018-05-17T16:25:05.063Z,7.73
2018-05-17T16:27:34.594Z,7.63
2018-05-17T16:30:03.895Z,7.80
2018-05-17T16:32:33.422Z,7.67
2018-05-17T16:35:02.977Z,7.27
2018-05-17T16:37:32.242Z,8.00
2018-05-17T16:40:01.810Z,7.87
2018-05-17T16:42:31.334Z,7.70
2018-05-17T16:45:00.850Z,8.00
2018-05-17T16:47:30.389Z,8.30
2018-05-17T16:49:59.921Z,9.70
2018-05-17T16:52:29.627Z,9.17
2018-05-17T16:54:59.334Z,9.73
2018-05-17T16:57:28.867Z,9.80
2018-05-17T16:59:58.982Z,10.80
2018-05-17T17:02:28.508Z,11.53
2018-05-17T17:04:58.127Z,11.87
2018-05-17T17:07:28.185Z,12.30
2018-05-17T17:09:57.811Z,12.17
2018-05-17T17:12:27.366Z,12.40
2018-05-17T17:14:56.902Z,12.13
2018-05-17T17:17:26.445Z,13.30
2018-05-17T17:19:56.023Z,14.63
2018-05-17T17:22:25.561Z,16.17
2018-05-17T17:24:55.140Z,15.97
2018-05-17T17:27:24.703Z,15.93
2018-05-17T17:29:54.659Z,15.33
2018-05-17T17:32:24.223Z,16.90
2018-05-17T17:34:54.174Z,15.03
2018-05-17T17:37:23.721Z,14.63
2018-05-17T17:39:53.272Z,14.90
2018-05-17T17:42:23.246Z,14.97
2018-05-17T17:44:52.835Z,15.90
2018-05-17T17:47:22.360Z,15.70
2018-05-17T17:49:51.901Z,15.40
2018-05-17T17:52:21.936Z,17.07
2018-05-17T17:54:51.470Z,15.50
2018-05-17T17:57:21.012Z,15.93
2018-05-17T17:59:50.563Z,15.93
2018-05-17T18:02:20.310Z,16.37
2018-05-17T18:04:49.839Z,16.80
2018-05-17T18:07:19.411Z,17.67
2018-05-17T18:09:48.958Z,16.63
2018-05-17T18:12:18.243Z,16.37
2018-05-17T18:14:47.794Z,16.47
2018-05-17T18:17:17.313Z,16.20
2018-05-17T18:19:46.858Z,17.13
2018-05-17T18:22:16.393Z,18.07
2018-05-17T18:24:46.369Z,17.47
2018-05-17T18:27:16.078Z,17.73
2018-05-17T18:29:45.593Z,16.43
2018-05-17T18:32:15.181Z,17.40
2018-05-17T18:34:44.762Z,17.10
2018-05-17T18:37:14.338Z,16.63
2018-05-17T18:39:44.277Z,17.07
2018-05-17T18:42:14.210Z,18.07
2018-05-17T18:44:43.772Z,18.07
2018-05-17T18:47:13.340Z,17.00
2018-05-17T18:49:42.903Z,15.90
2018-05-17T18:52:12.829Z,16.57
2018-05-17T18:54:42.820Z,16.97
2018-05-17T18:57:12.378Z,15.40
2018-05-17T18:59:41.596Z,15.57
2018-05-17T19:02:11.164Z,15.83
2018-05-17T19:04:40.841Z,15.57
2018-05-17T19:07:11.190Z,15.67
2018-05-17T19:09:41.833Z,15.83
2018-05-17T19:12:11.427Z,15.80
2018-05-17T19:14:40.967Z,14.47
2018-05-17T19:17:10.514Z,14.80
2018-05-17T19:19:40.082Z,15.37
2018-05-17T19:22:09.625Z,14.97
2018-05-17T19:24:39.175Z,15.90
2018-05-17T19:27:08.712Z,15.70
2018-05-17T19:29:38.259Z,15.43
2018-05-17T19:32:07.825Z,15.43
2018-05-17T19:34:37.421Z,15.23
2018-05-17T19:37:07.027Z,15.23
2018-05-17T19:39:36.697Z,15.40
2018-05-17T19:42:06.255Z,14.97
2018-05-17T19:44:35.861Z,15.03
2018-05-17T19:47:05.443Z,15.57
2018-05-17T19:49:35.358Z,15.90
2018-05-17T19:52:04.899Z,15.67
2018-05-17T19:54:34.447Z,16.07
2018-05-17T20:15:04.108Z,18.07
2018-05-17T20:17:33.735Z,18.37
2018-05-17T20:20:03.330Z,19.47
2018-05-17T20:22:33.269Z,18.80
2018-05-17T20:25:02.790Z,19.97
2018-05-17T20:27:32.369Z,21.13
2018-05-17T20:30:01.979Z,20.33
2018-05-17T20:32:31.522Z,21.43
2018-05-17T20:35:01.071Z,22.43
2018-05-17T20:37:30.601Z,22.37
2018-05-17T20:39:59.954Z,21.27
2018-05-17T20:42:29.512Z,22.37
2018-05-17T20:44:59.241Z,22.17
2018-05-17T20:47:28.807Z,22.73
2018-05-17T20:49:58.341Z,22.43
2018-05-17T20:52:27.870Z,24.07
2018-05-17T20:54:57.417Z,23.73
2018-05-17T20:57:27.340Z,23.13
2018-05-17T20:59:56.651Z,21.70
2018-05-17T21:02:26.199Z,22.73
2018-05-17T21:04:56.057Z,22.73
2018-05-17T21:07:26.301Z,23.90
2018-05-17T21:09:55.868Z,24.07
2018-05-17T21:12:25.776Z,23.60
2018-05-17T21:14:55.721Z,23.10
2018-05-17T21:17:24.967Z,23.30
2018-05-17T21:19:54.505Z,23.00
2018-05-17T21:22:24.453Z,21.33
2018-05-17T21:24:53.983Z,22.53
2018-05-17T21:27:23.526Z,24.60
2018-05-17T21:29:53.081Z,23.50
2018-05-17T21:32:22.607Z,24.33
2018-05-17T21:34:52.153Z,23.80
2018-05-17T21:37:22.081Z,25.40
2018-05-17T21:39:52.264Z,24.37
2018-05-17T21:42:21.951Z,24.23
2018-05-17T21:47:25.537Z,24.33
2018-05-17T21:49:55.104Z,25.13
2018-05-17T21:52:24.697Z,24.87
2018-05-17T21:54:54.240Z,24.13
2018-05-17T21:57:24.207Z,24.50
2018-05-17T21:59:53.737Z,23.30
2018-05-17T22:02:23.325Z,22.73
2018-05-17T22:04:52.842Z,22.53
2018-05-17T22:07:22.556Z,22.33
2018-05-17T22:09:52.102Z,26.83
2018-05-17T22:12:22.052Z,23.60
2018-05-17T22:14:51.800Z,23.33
2018-05-17T22:17:21.343Z,23.37
2018-05-17T22:19:51.311Z,24.83
2018-05-17T22:22:20.835Z,25.00
2018-05-17T22:24:50.411Z,25.17
2018-05-17T22:27:19.980Z,24.13
2018-05-17T22:29:49.504Z,23.60
2018-05-17T22:32:19.047Z,26.70
2018-05-17T22:34:48.758Z,28.20
2018-05-17T22:37:18.290Z,27.93
2018-05-17T22:39:48.878Z,29.10
2018-05-17T22:42:18.406Z,27.70
2018-05-17T22:44:47.936Z,27.57
2018-05-17T22:47:17.861Z,28.17
2018-05-17T22:49:47.585Z,25.20
2018-05-17T22:52:17.133Z,24.63
2018-05-17T22:54:46.672Z,23.97
2018-05-17T22:57:15.694Z,24.60
2018-05-17T23:03:21.505Z,24.00
2018-05-17T23:05:50.753Z,24.47
2018-05-17T23:08:20.379Z,24.53
2018-05-17T23:10:49.895Z,24.43
2018-05-17T23:13:19.499Z,24.77
2018-05-17T23:19:24.779Z,27.67
2018-05-17T23:21:54.327Z,28.40
2018-05-17T23:24:23.853Z,26.50
2018-05-17T23:26:53.417Z,27.67
2018-05-17T23:29:23.045Z,26.93
2018-05-17T23:31:52.559Z,26.03
2018-05-17T23:34:22.089Z,24.87
2018-05-17T23:36:52.012Z,25.77
2018-05-17T23:39:21.530Z,24.53
2018-05-17T23:41:51.053Z,25.43
2018-05-17T23:44:20.584Z,23.53
2018-05-17T23:46:50.932Z,28.67
2018-05-17T23:49:20.924Z,28.93
2018-05-17T23:51:50.514Z,29.33
2018-05-17T23:54:20.052Z,31.20
2018-05-17T23:56:49.622Z,33.67
2018-05-17T23:59:19.206Z,32.50
